Time;durP1;ratioP1;P1;durP2;ratioP2;P2;SDS_P1;SDS_P2;PMS_P1;PMS_P2;Temp;Humidity;BMP_temperature;BMP_pressure;BME280_temperature;BME280_humidity;BME280_pressure;Samples;Min_cycle;Max_cycle;Signal;HPM_P1;HPM_P2
2022/07/20 00:01:57;;;;;;;9.77;3.15;;;;;;;22.02;65.41;100155.22;5074256;28;20090;-70
2022/07/20 00:04:22;;;;;;;5.03;3.00;;;;;;;22.04;65.78;100174.63;5067679;28;20037;-70
2022/07/20 00:06:48;;;;;;;9.95;3.08;;;;;;;21.91;64.55;100158.13;5081819;28;20020;-70
2022/07/20 00:11:57;;;;;;;5.80;3.27;;;;;;;21.86;64.50;100153.22;5071354;28;20039;-70
2022/07/20 00:14:22;;;;;;;6.13;2.80;;;;;;;21.75;67.14;100147.25;5087525;28;20056;-70
2022/07/20 00:16:48;;;;;;;8.55;3.53;;;;;;;21.84;66.01;100159.69;5072338;28;20082;-70
2022/07/20 00:19:13;;;;;;;6.00;3.30;;;;;;;21.83;66.63;100174.09;5071740;28;20029;-70
2022/07/20 00:21:39;;;;;;;6.15;3.20;;;;;;;21.62;67.11;100144.16;5072321;28;20032;-70
2022/07/20 00:24:05;;;;;;;7.22;3.67;;;;;;;21.65;67.58;100160.72;5077302;28;20037;-70
2022/07/20 00:26:31;;;;;;;7.30;3.22;;;;;;;21.65;67.12;100166.06;5070157;28;20036;-70
2022/07/20 00:28:56;;;;;;;6.18;3.08;;;;;;;21.53;68.88;100143.22;5074564;28;20364;-70
2022/07/20 00:31:22;;;;;;;6.38;3.40;;;;;;;21.60;66.96;100167.50;5082982;28;20032;-70
2022/07/20 00:33:48;;;;;;;11.48;3.08;;;;;;;21.59;67.30;100172.03;5070060;28;20056;-70
2022/07/20 00:36:14;;;;;;;6.10;3.10;;;;;;;21.58;67.20;100167.69;5071915;28;20028;-70
2022/07/20 00:38:40;;;;;;;4.95;2.95;;;;;;;21.57;68.32;100162.47;5052235;28;20111;-70
2022/07/20 00:41:05;;;;;;;8.00;3.42;;;;;;;21.44;67.63;100154.84;5065496;28;20109;-70
2022/07/20 00:43:55;;;;;;;6.75;2.67;;;;;;;21.58;69.48;100167.69;5051179;28;20068;-69
2022/07/20 00:46:21;;;;;;;6.07;3.30;;;;;;;21.60;70.36;100164.84;5071276;28;20052;-69
2022/07/20 00:48:46;;;;;;;5.93;3.05;;;;;;;21.50;70.47;100154.22;5059903;28;20064;-69
2022/07/20 00:51:12;;;;;;;5.90;3.28;;;;;;;21.56;70.31;100150.09;5069294;28;20032;-69
2022/07/20 00:53:37;;;;;;;10.02;3.08;;;;;;;21.40;70.04;100140.06;5070360;28;20474;-69
2022/07/20 00:56:03;;;;;;;4.75;3.05;;;;;;;21.54;69.79;100171.66;5090588;28;20064;-70
2022/07/20 00:58:28;;;;;;;7.38;3.28;;;;;;;21.64;64.88;100217.88;5070661;28;20028;-70
2022/07/20 01:00:54;;;;;;;7.90;3.35;;;;;;;21.71;64.64;100165.44;5070614;28;20090;-70
2022/07/20 01:03:19;;;;;;;7.53;3.83;;;;;;;21.95;65.38;100196.97;5066843;28;20031;-69
2022/07/20 01:05:45;;;;;;;9.02;3.70;;;;;;;22.02;62.57;100203.38;5053313;28;20029;-70
2022/07/20 01:08:10;;;;;;;5.88;3.25;;;;;;;22.20;61.71;100209.56;5070337;28;20024;-69
2022/07/20 01:10:35;;;;;;;6.05;3.45;;;;;;;22.21;61.97;100195.16;5065895;28;20150;-70
2022/07/20 01:13:01;;;;;;;5.90;3.25;;;;;;;22.34;63.93;100211.66;5052374;28;20029;-70
2022/07/20 01:15:26;;;;;;;7.80;3.50;;;;;;;22.33;64.91;100214.50;5064734;28;20071;-70
2022/07/20 01:17:51;;;;;;;8.88;3.47;;;;;;;22.15;64.15;100206.50;5053385;28;20047;-70
2022/07/20 01:20:18;;;;;;;4.85;3.17;;;;;;;22.11;64.42;100221.19;5052325;28;20068;-70
2022/07/20 01:22:45;;;;;;;5.95;3.05;;;;;;;21.98;65.51;100215.38;5060920;28;20479;-70
2022/07/20 01:25:10;;;;;;;5.55;3.25;;;;;;;21.96;65.29;100244.16;5066822;28;20029;-70
2022/07/20 01:27:36;;;;;;;7.10;3.55;;;;;;;21.79;65.57;100215.53;5074909;28;20549;-70
2022/07/20 01:30:01;;;;;;;6.15;3.30;;;;;;;21.76;65.65;100223.84;5062922;28;20036;-70
2022/07/20 01:32:26;;;;;;;6.63;3.70;;;;;;;21.72;66.40;100220.66;5075850;28;20093;-70
2022/07/20 01:34:52;;;;;;;12.65;3.45;;;;;;;21.55;66.24;100204.59;5071657;28;20036;-70
2022/07/20 01:37:17;;;;;;;4.97;3.10;;;;;;;21.59;66.76;100222.00;5060516;28;20071;-70
2022/07/20 01:39:42;;;;;;;6.68;3.50;;;;;;;21.55;68.47;100234.00;5063944;28;20028;-70
2022/07/20 01:42:08;;;;;;;5.18;3.10;;;;;;;21.51;69.98;100230.78;5062419;28;20029;-70
2022/07/20 01:44:33;;;;;;;7.10;3.22;;;;;;;21.44;70.30;100227.03;5082331;28;20124;-70
2022/07/20 01:46:58;;;;;;;5.38;3.22;;;;;;;21.31;70.86;100210.50;5024139;28;20033;-70
2022/07/20 01:49:24;;;;;;;7.05;3.25;;;;;;;21.11;71.19;100204.44;5069470;28;20040;-70
2022/07/20 01:51:49;;;;;;;7.97;3.50;;;;;;;21.13;71.45;100213.13;5067988;28;20029;-70
2022/07/20 01:54:15;;;;;;;4.45;2.92;;;;;;;21.10;73.18;100233.97;5068889;28;20116;-70
2022/07/20 01:56:41;;;;;;;7.68;3.20;;;;;;;20.92;71.90;100215.16;5072061;28;20029;-70
2022/07/20 01:59:07;;;;;;;6.03;3.13;;;;;;;21.07;70.60;100243.09;5073594;28;20029;-71
2022/07/20 02:01:33;;;;;;;8.93;4.15;;;;;;;21.12;67.59;100232.84;5075404;28;20399;-70
2022/07/20 02:03:59;;;;;;;9.52;4.03;;;;;;;21.46;67.06;100230.38;5084837;28;20157;-70
2022/07/20 02:06:24;;;;;;;7.55;3.58;;;;;;;21.59;66.74;100246.09;5081408;28;20467;-70
2022/07/20 02:08:49;;;;;;;17.58;3.63;;;;;;;21.84;63.78;100251.50;5078618;28;20039;-70
2022/07/20 02:11:16;;;;;;;8.20;4.07;;;;;;;21.93;63.45;100239.09;5071935;28;20130;-71
2022/07/20 02:13:41;;;;;;;9.80;4.03;;;;;;;22.23;62.19;100262.78;5081932;28;20028;-70
2022/07/20 02:16:15;;;;;;;6.63;3.78;;;;;;;22.19;61.82;100240.00;5052379;28;20470;-70
2022/07/20 02:18:51;;;;;;;7.28;4.22;;;;;;;22.44;60.92;100248.22;5074549;28;20476;-70
2022/07/20 02:21:18;;;;;;;8.38;3.85;;;;;;;22.63;60.48;100266.75;5073805;28;20041;-70
2022/07/20 02:23:44;;;;;;;6.70;4.30;;;;;;;22.81;61.33;100272.94;5082456;28;20084;-71
2022/07/20 02:26:09;;;;;;;9.95;5.28;;;;;;;22.94;61.16;100278.72;5091064;28;20103;-71
2022/07/20 02:28:35;;;;;;;12.27;4.75;;;;;;;23.09;61.23;100279.78;5072630;28;20507;-70
2022/07/20 02:31:01;;;;;;;7.55;4.72;;;;;;;23.14;61.03;100269.44;5073927;28;20104;-71
2022/07/20 02:33:26;;;;;;;13.57;5.40;;;;;;;23.15;61.97;100271.09;5070020;28;20391;-71
2022/07/20 02:35:52;;;;;;;12.00;5.85;;;;;;;23.12;62.22;100276.78;5073362;28;20028;-70
2022/07/20 02:38:17;;;;;;;15.27;5.63;;;;;;;23.07;63.25;100262.19;5067645;28;20395;-70
2022/07/20 02:40:43;;;;;;;14.23;6.47;;;;;;;23.14;63.90;100285.53;5089693;28;20024;-71
2022/07/20 02:43:08;;;;;;;12.45;6.65;;;;;;;23.05;64.34;100267.69;5080224;28;20174;-70
2022/07/20 02:45:33;;;;;;;10.70;6.80;;;;;;;22.85;64.58;100247.50;5055545;28;20033;-71
2022/07/20 02:48:02;;;;;;;10.10;5.97;;;;;;;22.99;65.51;100281.75;5069394;28;20082;-70
2022/07/20 02:50:37;;;;;;;18.95;7.00;;;;;;;23.08;66.20;100312.97;5086893;28;20082;-70
2022/07/20 02:53:04;;;;;;;11.02;7.55;;;;;;;22.99;67.63;100319.28;5077287;28;20028;-71
2022/07/20 02:55:29;;;;;;;18.85;8.10;;;;;;;22.85;68.84;100301.09;5066342;28;20028;-70
2022/07/20 02:57:55;;;;;;;14.43;8.25;;;;;;;22.92;70.22;100312.84;5074071;28;20344;-70
2022/07/20 03:00:21;;;;;;;21.05;9.48;;;;;;;22.86;71.62;100310.81;5072916;28;20234;-69
2022/07/20 03:02:47;;;;;;;14.23;8.85;;;;;;;22.74;72.24;100314.75;5081552;28;20039;-70
2022/07/20 03:05:12;;;;;;;10.68;8.25;;;;;;;22.73;73.58;100323.78;5078613;28;20033;-70
2022/07/20 03:07:37;;;;;;;18.77;9.18;;;;;;;22.59;74.52;100321.63;5073644;28;20388;-70
2022/07/20 03:10:03;;;;;;;15.00;9.63;;;;;;;22.57;76.27;100331.69;5086110;28;20154;-70
2022/07/20 03:12:29;;;;;;;13.40;9.70;;;;;;;22.39;78.02;100304.91;5060953;28;20035;-69
2022/07/20 03:14:54;;;;;;;19.80;10.73;;;;;;;22.35;80.26;100315.09;5082435;28;20040;-70
2022/07/20 03:17:20;;;;;;;22.15;10.40;;;;;;;22.41;82.07;100335.88;5064310;28;20472;-70
2022/07/20 03:19:45;;;;;;;22.00;10.93;;;;;;;22.07;84.46;100293.94;5079565;28;20032;-70
2022/07/20 03:22:11;;;;;;;19.65;10.65;;;;;;;22.14;86.81;100313.72;5079147;28;20028;-70
2022/07/20 03:24:37;;;;;;;18.50;11.35;;;;;;;22.18;88.58;100333.81;5077262;28;20043;-70
2022/07/20 03:27:03;;;;;;;22.50;11.13;;;;;;;22.22;90.01;100335.22;5071473;28;20495;-70
2022/07/20 03:29:28;;;;;;;17.38;10.93;;;;;;;22.14;92.24;100341.31;5081015;28;20103;-69
2022/07/20 03:31:54;;;;;;;17.05;11.40;;;;;;;22.12;93.47;100351.34;5070444;28;20475;-70
2022/07/20 03:34:19;;;;;;;18.58;11.40;;;;;;;22.00;95.80;100333.84;5062117;28;20159;-70
2022/07/20 03:36:44;;;;;;;16.25;11.20;;;;;;;22.02;98.30;100353.25;5062240;28;20031;-70
2022/07/20 03:39:10;;;;;;;16.98;11.95;;;;;;;22.00;100.00;100362.44;5058652;28;20420;-70
2022/07/20 03:41:35;;;;;;;37.67;14.02;;;;;;;21.88;100.00;100359.09;5087101;28;20465;-70
2022/07/20 03:44:00;;;;;;;20.05;12.73;;;;;;;21.92;100.00;100359.66;5059383;28;20548;-70
2022/07/20 03:46:26;;;;;;;22.85;13.20;;;;;;;21.93;100.00;100367.53;5056759;28;20502;-70
2022/07/20 03:48:51;;;;;;;17.27;12.93;;;;;;;21.84;100.00;100352.34;5085065;28;20028;-71
2022/07/20 03:51:17;;;;;;;28.50;13.40;;;;;;;21.83;100.00;100372.09;5058681;28;20036;-70
2022/07/20 03:53:42;;;;;;;18.73;13.07;;;;;;;21.89;100.00;100398.22;5070369;28;20032;-71
2022/07/20 03:56:07;;;;;;;22.40;13.20;;;;;;;21.78;100.00;100390.41;5064158;28;20082;-71
2022/07/20 03:58:33;;;;;;;15.38;12.40;;;;;;;21.87;100.00;100405.56;5071472;28;20108;-70
2022/07/20 04:00:58;;;;;;;19.63;11.95;;;;;;;21.86;100.00;100407.41;5073658;28;20034;-70
2022/07/20 04:03:23;;;;;;;18.10;13.20;;;;;;;21.80;100.00;100407.97;5072237;28;20028;-71
2022/07/20 04:05:49;;;;;;;20.30;13.55;;;;;;;21.79;100.00;100394.78;5071919;28;20515;-70
2022/07/20 04:08:14;;;;;;;19.65;12.50;;;;;;;21.80;100.00;100409.81;5073174;28;20036;-71
2022/07/20 04:10:40;;;;;;;20.23;13.13;;;;;;;21.80;100.00;100407.13;5063575;28;20032;-71
2022/07/20 04:13:05;;;;;;;22.55;12.45;;;;;;;21.83;100.00;100401.50;5080945;28;20459;-71
2022/07/20 04:15:31;;;;;;;20.45;12.68;;;;;;;21.85;100.00;100402.19;5082061;28;20488;-70
2022/07/20 04:17:56;;;;;;;20.15;13.95;;;;;;;21.82;100.00;100405.16;5060233;28;20031;-71
2022/07/20 04:20:22;;;;;;;19.27;13.77;;;;;;;21.97;100.00;100425.09;5066425;28;20106;-70
2022/07/20 04:22:47;;;;;;;19.42;14.10;;;;;;;21.98;100.00;100426.81;5054458;28;20379;-71
2022/07/20 04:25:13;;;;;;;24.58;14.38;;;;;;;21.91;100.00;100415.00;5058593;28;20056;-70
2022/07/20 04:27:38;;;;;;;23.67;14.73;;;;;;;22.03;100.00;100431.72;5065955;28;20032;-70
2022/07/20 04:30:04;;;;;;;22.98;15.40;;;;;;;22.04;100.00;100433.38;5061199;28;20035;-71
2022/07/20 04:32:30;;;;;;;20.73;15.52;;;;;;;22.06;100.00;100437.63;5071307;28;20032;-71
2022/07/20 04:34:55;;;;;;;26.80;16.10;;;;;;;21.97;100.00;100414.41;5072314;28;20098;-70
2022/07/20 04:37:21;;;;;;;24.38;16.90;;;;;;;22.06;100.00;100432.25;5069924;28;20028;-71
2022/07/20 04:39:46;;;;;;;28.92;17.98;;;;;;;22.11;100.00;100446.03;5062820;28;20052;-71
2022/07/20 04:42:12;;;;;;;27.63;17.08;;;;;;;21.99;100.00;100412.44;5062008;28;20060;-73
2022/07/20 04:44:37;;;;;;;27.35;17.05;;;;;;;22.19;100.00;100456.00;5052076;28;20021;-70
2022/07/20 04:47:03;;;;;;;26.65;17.30;;;;;;;22.21;100.00;100456.66;5056786;28;20106;-71
2022/07/20 04:49:28;;;;;;;25.48;17.70;;;;;;;22.19;100.00;100464.03;5056435;28;20033;-71
2022/07/20 04:51:53;;;;;;;25.02;17.45;;;;;;;22.19;100.00;100453.31;5080385;28;20016;-71
2022/07/20 04:54:21;;;;;;;29.40;18.27;;;;;;;22.21;100.00;100462.88;5069511;28;20024;-72
2022/07/20 04:56:47;;;;;;;27.15;17.70;;;;;;;22.21;100.00;100454.84;5064590;28;20031;-72
2022/07/20 04:59:12;;;;;;;26.50;18.67;;;;;;;22.23;100.00;100466.25;5069013;28;20019;-71
2022/07/20 05:01:38;;;;;;;23.98;18.52;;;;;;;22.10;100.00;100439.00;5066373;28;20033;-71
2022/07/20 05:04:03;;;;;;;25.92;17.58;;;;;;;22.26;100.00;100460.59;5071606;28;20114;-72
2022/07/20 05:06:29;;;;;;;28.30;18.70;;;;;;;22.29;100.00;100454.09;5062586;28;20108;-71
2022/07/20 05:08:54;;;;;;;27.77;18.05;;;;;;;22.22;100.00;100453.84;5087464;28;20032;-71
2022/07/20 05:11:19;;;;;;;30.70;18.13;;;;;;;22.29;100.00;100471.00;5062839;28;20027;-72
2022/07/20 05:13:45;;;;;;;24.60;18.15;;;;;;;22.34;100.00;100483.94;5074080;28;20094;-73
2022/07/20 05:16:10;;;;;;;32.72;17.27;;;;;;;22.34;100.00;100482.09;5060310;28;20438;-71
2022/07/20 05:18:36;;;;;;;22.60;18.20;;;;;;;22.32;100.00;100468.03;5058720;28;20024;-71
2022/07/20 05:21:02;;;;;;;26.48;17.98;;;;;;;22.32;100.00;100473.38;5057292;28;20372;-72
2022/07/20 05:23:27;;;;;;;31.02;17.90;;;;;;;22.42;100.00;100482.19;5058220;28;20024;-71
2022/07/20 05:25:52;;;;;;;25.77;19.35;;;;;;;22.10;100.00;100427.44;5088007;27;20029;-72
2022/07/20 05:28:20;;;;;;;26.13;18.75;;;;;;;22.36;100.00;100482.81;5100723;28;20035;-73
2022/07/20 05:30:46;;;;;;;25.85;18.23;;;;;;;22.41;100.00;100490.38;5096954;28;20033;-74
2022/07/20 05:33:11;;;;;;;29.00;18.52;;;;;;;22.39;100.00;100495.91;5059621;28;20025;-73
2022/07/20 05:35:37;;;;;;;30.90;17.95;;;;;;;22.14;100.00;100477.84;5075624;28;20082;-71
2022/07/20 05:38:02;;;;;;;25.42;17.17;;;;;;;22.26;100.00;100502.59;5069642;28;20046;-71
2022/07/20 05:40:28;;;;;;;21.60;17.55;;;;;;;22.18;100.00;100487.28;5081029;28;20025;-70
2022/07/20 05:42:53;;;;;;;32.28;17.00;;;;;;;22.19;100.00;100502.34;5077977;28;20085;-71
2022/07/20 05:45:18;;;;;;;29.42;17.98;;;;;;;22.14;100.00;100504.63;5076298;28;20030;-71
2022/07/20 05:47:44;;;;;;;31.15;18.95;;;;;;;22.12;100.00;100509.28;5083745;28;20475;-71
2022/07/20 05:50:09;;;;;;;23.40;17.77;;;;;;;22.17;100.00;100531.09;5074479;28;20031;-71
2022/07/20 05:52:34;;;;;;;28.35;19.02;;;;;;;22.11;100.00;100531.69;5094517;28;20116;-72
2022/07/20 05:55:00;;;;;;;23.83;18.20;;;;;;;22.06;100.00;100542.00;5080769;28;20032;-73
2022/07/20 05:57:26;;;;;;;26.35;20.23;;;;;;;22.14;100.00;100550.13;5080167;28;20052;-71
2022/07/20 05:59:51;;;;;;;29.70;19.42;;;;;;;22.15;100.00;100564.34;5069719;28;20033;-72
2022/07/20 06:02:17;;;;;;;26.58;20.27;;;;;;;22.15;100.00;100554.50;5084651;28;20024;-71
2022/07/20 06:04:42;;;;;;;26.52;19.83;;;;;;;22.21;100.00;100561.09;5089897;28;20032;-72
2022/07/20 06:07:07;;;;;;;29.65;19.70;;;;;;;21.91;100.00;100495.28;5083913;28;20120;-71
2022/07/20 06:09:33;;;;;;;35.17;21.35;;;;;;;22.37;100.00;100558.63;5068729;28;20029;-75
2022/07/20 06:11:58;;;;;;;27.02;20.60;;;;;;;22.47;100.00;100569.31;5072527;28;20497;-74
2022/07/20 06:14:23;;;;;;;33.72;19.92;;;;;;;22.55;100.00;100574.75;5070166;28;20029;-72
2022/07/20 06:16:49;;;;;;;29.38;20.02;;;;;;;22.56;100.00;100587.16;5068538;28;20028;-72
2022/07/20 06:19:14;;;;;;;34.60;20.48;;;;;;;22.57;100.00;100602.25;5072374;28;20020;-72
2022/07/20 06:21:40;;;;;;;33.30;20.17;;;;;;;22.41;100.00;100593.00;5079243;28;20089;-72
2022/07/20 06:24:05;;;;;;;25.40;20.05;;;;;;;22.38;100.00;100604.00;5076168;28;20164;-73
2022/07/20 06:26:31;;;;;;;32.15;21.15;;;;;;;22.46;100.00;100615.81;5070690;28;20050;-73
2022/07/20 06:28:56;;;;;;;27.02;19.60;;;;;;;22.45;100.00;100614.13;5072464;28;20028;-72
2022/07/20 06:31:22;;;;;;;32.28;20.38;;;;;;;22.41;100.00;100614.41;5049461;28;20059;-74
2022/07/20 06:33:48;;;;;;;27.13;19.55;;;;;;;22.47;100.00;100612.16;5111148;27;20037;-72
2022/07/20 06:36:16;;;;;;;24.58;18.45;;;;;;;22.64;100.00;100632.81;5073876;28;20021;-74
2022/07/20 06:38:41;;;;;;;28.45;20.50;;;;;;;22.68;100.00;100637.72;5069218;28;20389;-75
2022/07/20 06:41:07;;;;;;;34.28;20.25;;;;;;;22.65;100.00;100621.06;5054837;28;20033;-74
2022/07/20 06:43:32;;;;;;;30.13;21.27;;;;;;;22.64;100.00;100624.78;5063050;28;20086;-73
2022/07/20 06:45:57;;;;;;;29.65;19.52;;;;;;;22.66;100.00;100629.00;5063481;28;20027;-73
2022/07/20 06:48:23;;;;;;;26.15;19.25;;;;;;;22.74;100.00;100644.34;5060427;28;20106;-74
2022/07/20 06:50:49;;;;;;;26.50;17.65;;;;;;;22.84;100.00;100651.34;5059971;28;20024;-73
2022/07/20 06:53:14;;;;;;;23.67;17.05;;;;;;;22.89;100.00;100646.38;5053765;28;20111;-73
2022/07/20 06:55:40;;;;;;;22.27;17.55;;;;;;;23.01;100.00;100671.16;5058485;28;20112;-73
2022/07/20 06:58:05;;;;;;;27.38;16.58;;;;;;;23.07;100.00;100670.53;5063447;28;20025;-74
2022/07/20 07:00:30;;;;;;;22.08;15.35;;;;;;;23.06;100.00;100647.41;5070343;28;20139;-73
2022/07/20 07:02:56;;;;;;;24.85;16.27;;;;;;;23.20;100.00;100659.44;5074617;28;20025;-75
2022/07/20 07:05:21;;;;;;;26.27;15.77;;;;;;;23.06;100.00;100639.34;5066435;28;20390;-72
2022/07/20 07:07:47;;;;;;;20.88;15.15;;;;;;;23.26;100.00;100643.59;5061918;28;20024;-73
2022/07/20 07:10:12;;;;;;;21.48;13.65;;;;;;;23.37;100.00;100659.47;5077687;28;20021;-73
2022/07/20 07:12:38;;;;;;;20.77;14.57;;;;;;;23.46;100.00;100659.56;5083376;28;20451;-73
2022/07/20 07:15:03;;;;;;;24.08;15.18;;;;;;;23.46;100.00;100663.09;5061066;28;20025;-73
2022/07/20 07:17:30;;;;;;;23.40;13.88;;;;;;;23.60;100.00;100672.44;5061047;28;20037;-72
2022/07/20 07:19:59;;;;;;;20.42;13.88;;;;;;;23.01;100.00;100581.84;5057050;28;20034;-75
2022/07/20 07:22:28;;;;;;;18.20;14.25;;;;;;;23.70;100.00;100692.00;5074938;28;20440;-73
2022/07/20 07:24:54;;;;;;;21.77;15.30;;;;;;;23.69;100.00;100693.00;5058161;28;20032;-73
2022/07/20 07:27:20;;;;;;;18.63;14.27;;;;;;;23.82;100.00;100709.56;5055591;28;20082;-74
2022/07/20 07:29:46;;;;;;;24.38;14.15;;;;;;;23.81;100.00;100711.41;5077350;28;20487;-74
2022/07/20 07:32:11;;;;;;;21.75;15.65;;;;;;;23.75;100.00;100689.72;5063973;28;20016;-74
2022/07/20 07:34:36;;;;;;;26.50;13.95;;;;;;;23.79;100.00;100677.66;5099127;27;20087;-74
2022/07/20 07:37:02;;;;;;;20.08;13.55;;;;;;;23.55;100.00;100638.03;5084148;28;20024;-74
2022/07/20 07:39:27;;;;;;;18.63;14.07;;;;;;;23.77;100.00;100682.31;5080065;28;20028;-71
2022/07/20 07:41:53;;;;;;;20.58;13.10;;;;;;;23.80;100.00;100704.34;5061131;28;20055;-73
2022/07/20 07:44:18;;;;;;;27.30;15.30;;;;;;;23.76;100.00;100696.78;5056938;28;20032;-72
2022/07/20 07:46:44;;;;;;;19.75;13.48;;;;;;;23.84;100.00;100712.94;5058178;28;21517;-74
2022/07/20 07:49:09;;;;;;;22.85;14.57;;;;;;;24.03;100.00;100722.66;5055874;28;20102;-73
2022/07/20 07:51:34;;;;;;;19.95;14.07;;;;;;;24.12;100.00;100700.25;5061221;28;20044;-72
2022/07/20 07:54:00;;;;;;;21.17;13.65;;;;;;;24.24;100.00;100694.47;5065539;28;20085;-72
2022/07/20 07:56:25;;;;;;;19.52;13.90;;;;;;;24.29;100.00;100689.50;5053141;28;20033;-71
2022/07/20 07:58:50;;;;;;;18.95;12.52;;;;;;;24.36;100.00;100671.75;5083620;28;20024;-74
2022/07/20 08:01:16;;;;;;;15.18;10.90;;;;;;;24.43;100.00;100656.66;5056921;28;20036;-73
2022/07/20 08:03:41;;;;;;;25.90;12.40;;;;;;;24.54;100.00;100690.47;5056192;28;20500;-71
2022/07/20 08:06:07;;;;;;;14.70;11.27;;;;;;;24.57;100.00;100690.16;5060567;28;20029;-74
2022/07/20 08:08:32;;;;;;;19.58;11.63;;;;;;;24.46;100.00;100665.41;5063684;28;20029;-73
2022/07/20 08:10:58;;;;;;;13.45;10.15;;;;;;;24.54;100.00;100674.34;5053696;28;20031;-72
2022/07/20 08:13:23;;;;;;;12.52;10.15;;;;;;;24.64;100.00;100679.63;5054140;28;20063;-75
2022/07/20 08:15:49;;;;;;;17.40;10.18;;;;;;;24.53;100.00;100656.56;5070387;28;20625;-69
2022/07/20 08:18:14;;;;;;;16.08;9.98;;;;;;;24.33;100.00;100607.56;5071313;28;20025;-71
2022/07/20 08:20:40;;;;;;;12.20;9.90;;;;;;;24.48;100.00;100605.13;5068444;28;20025;-71
2022/07/20 08:23:06;;;;;;;12.75;8.55;;;;;;;24.55;100.00;100624.13;5062972;28;20040;-70
2022/07/20 08:25:32;;;;;;;15.57;9.88;;;;;;;24.60;100.00;100724.78;5070399;28;20544;-73
2022/07/20 08:28:17;;;;;;;12.50;8.18;;;;;;;24.95;100.00;100785.66;5091553;27;20029;-72
2022/07/20 08:30:45;;;;;;;20.08;9.45;;;;;;;25.14;100.00;100730.78;5056880;28;20036;-70
2022/07/20 08:33:11;;;;;;;19.45;8.82;;;;;;;25.23;100.00;100730.66;5077613;28;20445;-74
2022/07/20 08:35:36;;;;;;;11.95;8.68;;;;;;;25.33;100.00;100769.03;5066817;28;20125;-72
2022/07/20 08:38:03;;;;;;;16.77;8.52;;;;;;;25.41;100.00;100765.53;5061453;28;20127;-73
2022/07/20 08:40:28;;;;;;;12.00;8.27;;;;;;;25.42;100.00;100757.28;5063184;28;20119;-72
2022/07/20 08:42:54;;;;;;;15.10;8.32;;;;;;;25.42;100.00;100761.81;5070990;28;20043;-73
2022/07/20 08:45:20;;;;;;;13.40;7.90;;;;;;;25.34;100.00;100770.72;5057216;28;20419;-71
2022/07/20 08:47:45;;;;;;;11.65;8.88;;;;;;;25.33;100.00;100747.50;5063381;28;20502;-71
2022/07/20 08:50:11;;;;;;;14.48;7.40;;;;;;;25.28;100.00;100744.44;5083196;28;20030;-72
2022/07/20 08:52:37;;;;;;;14.15;7.70;;;;;;;25.17;100.00;100728.63;5069769;28;20051;-72
2022/07/20 08:55:04;;;;;;;9.52;7.07;;;;;;;25.07;100.00;100735.97;5054921;28;20151;-71
2022/07/20 08:57:30;;;;;;;9.15;7.25;;;;;;;25.25;100.00;100776.22;5069830;28;20086;-71
2022/07/20 08:59:55;;;;;;;14.15;8.10;;;;;;;25.22;100.00;100763.94;5081032;28;20036;-73
2022/07/20 09:02:21;;;;;;;11.80;7.47;;;;;;;25.09;100.00;100763.56;5066588;28;20023;-75
2022/07/20 09:04:58;;;;;;;12.13;7.63;;;;;;;25.01;100.00;100752.75;5064610;28;20037;-75
2022/07/20 09:07:44;;;;;;;11.23;8.25;;;;;;;25.04;100.00;100748.91;5061663;28;20033;-73
2022/07/20 09:10:13;;;;;;;13.48;8.20;;;;;;;25.00;100.00;100728.72;5062251;28;20040;-74
2022/07/20 09:12:59;;;;;;;12.02;8.07;;;;;;;25.02;100.00;100727.53;5076750;28;20479;-73
2022/07/20 09:15:40;;;;;;;18.58;8.48;;;;;;;25.05;100.00;100732.59;5088084;28;20106;-74
2022/07/20 09:18:11;;;;;;;15.52;8.55;;;;;;;25.08;100.00;100721.50;5069499;28;20048;-73
2022/07/20 09:20:40;;;;;;;14.10;8.13;;;;;;;25.18;100.00;100719.53;5072171;28;20149;-71
2022/07/20 09:23:08;;;;;;;13.13;9.48;;;;;;;25.27;100.00;100741.94;5077779;28;20028;-74
2022/07/20 09:25:34;;;;;;;14.20;8.80;;;;;;;25.27;100.00;100775.06;5058408;28;20048;-75
2022/07/20 09:28:00;;;;;;;16.67;10.02;;;;;;;25.28;100.00;100784.81;5080530;28;21024;-74
2022/07/20 09:30:25;;;;;;;17.52;9.07;;;;;;;25.22;100.00;100787.31;5049979;28;20072;-72
2022/07/20 09:33:02;;;;;;;16.05;9.90;;;;;;;24.96;100.00;100757.78;5062584;28;20476;-74
2022/07/20 09:35:30;;;;;;;15.15;10.40;;;;;;;25.06;100.00;100771.94;5071942;28;20036;-73
2022/07/20 09:37:57;;;;;;;20.30;10.80;;;;;;;25.19;100.00;100782.25;5074181;28;20355;-74
2022/07/20 09:40:23;;;;;;;14.77;10.38;;;;;;;25.13;100.00;100742.56;5070288;28;20780;-75
2022/07/20 09:42:49;;;;;;;19.52;11.25;;;;;;;24.96;100.00;100716.59;5091232;28;20030;-73
2022/07/20 09:45:26;;;;;;;32.38;10.90;;;;;;;24.76;100.00;100710.59;5056317;28;20390;-74
2022/07/20 09:48:09;;;;;;;15.38;10.25;;;;;;;24.30;100.00;100757.50;5077535;28;20025;-73
2022/07/20 09:50:40;;;;;;;16.55;10.75;;;;;;;23.67;100.00;100775.50;5079837;28;20035;-72
2022/07/20 09:53:07;;;;;;;16.23;11.13;;;;;;;23.46;100.00;100785.66;5054691;28;20394;-73
2022/07/20 09:55:34;;;;;;;16.40;10.57;;;;;;;23.34;100.00;100768.91;5064213;28;20036;-74
2022/07/20 09:58:00;;;;;;;13.65;10.13;;;;;;;23.46;100.00;100785.66;5058951;28;20021;-74
2022/07/20 10:00:27;;;;;;;15.77;9.85;;;;;;;23.52;100.00;100777.03;5059259;28;20045;-74
2022/07/20 10:02:55;;;;;;;26.02;9.55;;;;;;;23.74;100.00;100792.69;5076082;28;20536;-73
2022/07/20 10:05:22;;;;;;;13.10;9.43;;;;;;;24.07;100.00;100788.47;5065166;28;20025;-74
2022/07/20 10:07:48;;;;;;;13.55;8.55;;;;;;;24.24;100.00;100775.06;5065514;28;20059;-73
2022/07/20 10:10:14;;;;;;;13.55;8.00;;;;;;;24.28;100.00;100748.75;5071203;28;20057;-73
2022/07/20 10:12:39;;;;;;;12.88;7.88;;;;;;;24.56;100.00;100757.50;5067656;28;20024;-74
2022/07/20 10:15:08;;;;;;;13.45;8.32;;;;;;;24.67;100.00;100743.81;5067306;28;20432;-74
2022/07/20 10:17:36;;;;;;;10.43;6.78;;;;;;;24.78;100.00;100748.91;5070397;28;20036;-73
2022/07/20 10:20:02;;;;;;;10.98;7.75;;;;;;;24.92;100.00;100729.50;5079932;28;20024;-75
2022/07/20 10:22:27;;;;;;;12.70;8.10;;;;;;;24.88;100.00;100699.41;5093855;28;20032;-72
2022/07/20 10:25:27;;;;;;;11.45;7.18;;;;;;;25.32;100.00;100721.59;5071697;28;20062;-72
2022/07/20 10:28:34;;;;;;;15.10;7.32;;;;;;;25.66;100.00;100742.22;5046464;28;20483;-74
2022/07/20 10:31:04;;;;;;;9.45;7.15;;;;;;;25.84;100.00;100745.63;5077991;28;20056;-73
2022/07/20 10:33:31;;;;;;;12.13;8.43;;;;;;;26.05;100.00;100745.13;5068747;28;20028;-72
2022/07/20 10:38:55;;;;;;;14.45;7.25;;;;;;;26.29;100.00;100759.50;5077276;28;20048;-72
2022/07/20 10:41:33;;;;;;;11.50;7.25;;;;;;;26.24;100.00;100742.13;5076292;28;20027;-73
2022/07/20 10:44:20;;;;;;;15.18;7.60;;;;;;;26.36;100.00;100770.44;5091193;28;20059;-73
2022/07/20 10:46:45;;;;;;;9.93;6.85;;;;;;;26.35;100.00;100764.19;5062825;28;20016;-74
2022/07/20 10:49:11;;;;;;;12.40;7.20;;;;;;;26.57;100.00;100759.94;5075614;28;20051;-75
2022/07/20 10:51:37;;;;;;;8.77;5.60;;;;;;;26.74;100.00;100767.00;5058135;28;20029;-73
2022/07/20 10:54:30;;;;;;;9.05;5.97;;;;;;;26.91;98.88;100778.59;5053465;28;20047;-74
2022/07/20 10:56:57;;;;;;;8.95;5.45;;;;;;;27.09;94.12;100763.06;5064619;28;20032;-73
2022/07/20 10:59:22;;;;;;;7.85;5.25;;;;;;;27.21;93.54;100758.09;5071576;28;20075;-73
2022/07/20 11:01:48;;;;;;;7.38;4.68;;;;;;;27.36;93.17;100751.78;5067074;28;20447;-75
2022/07/20 11:04:15;;;;;;;8.45;4.85;;;;;;;27.54;91.37;100754.28;5065386;28;20028;-73
2022/07/20 11:06:40;;;;;;;8.23;5.10;;;;;;;27.57;88.38;100734.16;5061857;28;20503;-75
2022/07/20 11:09:06;;;;;;;7.38;5.07;;;;;;;27.73;86.90;100748.41;5096505;28;20040;-74
2022/07/20 11:11:34;;;;;;;7.85;5.18;;;;;;;27.72;88.87;100745.84;5086552;28;20032;-77
2022/07/20 11:14:01;;;;;;;8.30;4.82;;;;;;;27.92;87.42;100757.88;5070567;28;20133;-74